SIPK1: Pottawatomie Creek nr Scipio 1SE

                                SHEF ID:       SIPK1     POTTAWATOMIE C NR SCIPIO, KS
STATION TYPE:

PRECIP STAGE RIV-FLOW BAT-LOAD
in ft cfs volt
Ccp-Rev Ccp-Rev Ccp-Rev Ccp-Rev
(America/Chicago)
06/26 00:00 ---- 3.95 117 12.73
06/26 01:00 ---- 3.94 115 12.65
06/26 02:00 ---- 3.95 117 12.65
06/26 03:00 ---- 3.95 117 12.65
06/26 04:00 ---- 3.96 120 12.65
06/26 05:00 ---- 3.97 123 12.65
06/26 06:00 ---- 3.98 125 12.57
06/26 07:00 ---- 3.99 128 12.65
06/26 08:00 ---- 4.01 133 12.65
06/26 09:00 ---- 4.02 135 12.65
06/26 10:00 ---- 4.06 143 12.65
06/26 11:00 ---- 4.16 164 12.73
06/26 12:00 ---- 5.60 432 13.44
06/26 13:00 ---- 8.26 863 13.44
06/26 14:00 ---- 10.43 1377 13.68
06/26 15:00 2.57 11.98 1797 13.60
06/26 16:00 ---- 13.11 2130 13.53
06/26 17:00 ---- 13.92 2382 13.53
06/26 18:00 ---- 14.45 2552 13.44
06/26 19:00 ---- 14.87 2691 13.29
06/26 20:00 ---- 15.08 2761 12.89
06/26 21:00 ---- 15.15 2784 12.81
06/26 22:00 ---- 15.14 2781 12.81
06/26 23:00 ---- 14.95 2717 12.81
Data processed at Sat 27Jun2026 04:48 GMT

NOTICE: If you are parsing this page

Please convert to using our Data API. Starting early 2026 we will be migrating to: https://water.usace.army.mil with modern pages rendered in JavaScript. When this migration completes you will no longer be able to scrape this page! CWMSDataAPI (CDA)

Timeseries IDs (TSIDs)

TSIDs used from left to right in the data table
SCIP.Precip-Inc.Total.1Hour.1Hour.Ccp-Rev
SCIP.Stage.Inst.1Hour.0.Ccp-Rev
SCIP.Flow.Inst.1Hour.0.Ccp-Rev
SCIP.Volt-Battery Load.Inst.1Hour.0.Ccp-Rev

                            

All information presented herein is the property of the government of the United States of America and may be revised or deleted at any time without prior notice. Dissemination of this information without the expressed written consent of the Public Affairs Office, Tulsa District U.S. Army Corps of Engineers is strictly prohibited. These data are gathered electronically and, as presented, have NOT undergone any form of quality control. These data are NOT guaranteed to be valid or correct.